sensor_id;sensor_type;location;lat;lon;timestamp;pressure;altitude;pressure_sealevel;temperature;humidity
13800;BME280;6971;50.028;9.258;2022-12-18T00:00:48;100659.78;;;-11.11;100.00
13800;BME280;6971;50.028;9.258;2022-12-18T00:05:51;100663.88;;;-11.14;100.00
13800;BME280;6971;50.028;9.258;2022-12-18T00:10:52;100671.72;;;-11.10;100.00
13800;BME280;6971;50.028;9.258;2022-12-18T00:15:53;100672.69;;;-11.08;100.00
13800;BME280;6971;50.028;9.258;2022-12-18T00:20:53;100681.47;;;-10.86;100.00
13800;BME280;6971;50.028;9.258;2022-12-18T00:26:02;100682.31;;;-10.86;100.00
13800;BME280;6971;50.028;9.258;2022-12-18T00:31:08;100687.69;;;-10.81;100.00
13800;BME280;6971;50.028;9.258;2022-12-18T00:36:15;100688.88;;;-10.75;100.00
13800;BME280;6971;50.028;9.258;2022-12-18T00:41:17;100694.19;;;-10.70;100.00
13800;BME280;6971;50.028;9.258;2022-12-18T00:46:38;100697.22;;;-10.60;100.00
13800;BME280;6971;50.028;9.258;2022-12-18T00:51:39;100688.47;;;-10.66;100.00
13800;BME280;6971;50.028;9.258;2022-12-18T00:56:40;100696.19;;;-10.64;100.00
13800;BME280;6971;50.028;9.258;2022-12-18T01:01:41;100697.72;;;-10.68;100.00
13800;BME280;6971;50.028;9.258;2022-12-18T01:06:43;100706.22;;;-10.67;100.00
13800;BME280;6971;50.028;9.258;2022-12-18T01:11:44;100713.97;;;-10.66;100.00
13800;BME280;6971;50.028;9.258;2022-12-18T01:16:45;100699.88;;;-10.76;100.00
13800;BME280;6971;50.028;9.258;2022-12-18T01:21:45;100705.38;;;-10.68;100.00
13800;BME280;6971;50.028;9.258;2022-12-18T01:26:46;100700.72;;;-10.75;100.00
13800;BME280;6971;50.028;9.258;2022-12-18T01:31:47;100683.00;;;-10.57;100.00
13800;BME280;6971;50.028;9.258;2022-12-18T01:36:48;100686.72;;;-10.67;100.00
13800;BME280;6971;50.028;9.258;2022-12-18T01:41:49;100703.00;;;-10.65;100.00
13800;BME280;6971;50.028;9.258;2022-12-18T01:52:25;100707.41;;;-10.60;100.00
13800;BME280;6971;50.028;9.258;2022-12-18T01:57:27;100709.19;;;-10.59;100.00
13800;BME280;6971;50.028;9.258;2022-12-18T02:02:30;100713.19;;;-10.65;100.00
13800;BME280;6971;50.028;9.258;2022-12-18T02:07:39;100696.59;;;-10.73;100.00
13800;BME280;6971;50.028;9.258;2022-12-18T02:18:20;100691.72;;;-10.85;100.00
13800;BME280;6971;50.028;9.258;2022-12-18T02:29:10;100702.16;;;-10.80;100.00
13800;BME280;6971;50.028;9.258;2022-12-18T02:34:13;100686.63;;;-10.85;100.00
13800;BME280;6971;50.028;9.258;2022-12-18T02:39:15;100680.13;;;-10.80;100.00
13800;BME280;6971;50.028;9.258;2022-12-18T02:44:16;100697.97;;;-10.80;100.00
13800;BME280;6971;50.028;9.258;2022-12-18T02:49:39;100701.38;;;-10.79;100.00
13800;BME280;6971;50.028;9.258;2022-12-18T03:00:12;100691.72;;;-10.85;100.00
13800;BME280;6971;50.028;9.258;2022-12-18T03:05:37;100695.88;;;-10.87;100.00
13800;BME280;6971;50.028;9.258;2022-12-18T03:10:45;100696.59;;;-10.90;100.00
13800;BME280;6971;50.028;9.258;2022-12-18T03:15:53;100694.34;;;-10.83;100.00
13800;BME280;6971;50.028;9.258;2022-12-18T03:21:01;100691.50;;;-10.73;100.00
13800;BME280;6971;50.028;9.258;2022-12-18T03:26:07;100682.59;;;-10.65;100.00
13800;BME280;6971;50.028;9.258;2022-12-18T03:31:11;100696.19;;;-10.64;100.00
13800;BME280;6971;50.028;9.258;2022-12-18T03:36:14;100700.19;;;-10.53;100.00
13800;BME280;6971;50.028;9.258;2022-12-18T03:41:45;100679.28;;;-10.29;100.00
13800;BME280;6971;50.028;9.258;2022-12-18T03:47:04;100690.66;;;-10.22;100.00
13800;BME280;6971;50.028;9.258;2022-12-18T03:52:24;100676.63;;;-10.14;100.00
13800;BME280;6971;50.028;9.258;2022-12-18T03:57:29;100681.88;;;-10.11;100.00
13800;BME280;6971;50.028;9.258;2022-12-18T04:02:31;100687.59;;;-9.98;100.00
13800;BME280;6971;50.028;9.258;2022-12-18T04:07:33;100706.69;;;-9.90;100.00
13800;BME280;6971;50.028;9.258;2022-12-18T04:12:37;100689.34;;;-9.79;100.00
13800;BME280;6971;50.028;9.258;2022-12-18T04:17:39;100692.06;;;-9.76;100.00
13800;BME280;6971;50.028;9.258;2022-12-18T04:22:43;100695.50;;;-9.75;100.00
13800;BME280;6971;50.028;9.258;2022-12-18T04:27:43;100691.50;;;-9.70;100.00
13800;BME280;6971;50.028;9.258;2022-12-18T04:32:44;100688.72;;;-9.38;100.00
13800;BME280;6971;50.028;9.258;2022-12-18T04:37:45;100684.16;;;-9.46;100.00
13800;BME280;6971;50.028;9.258;2022-12-18T04:42:45;100680.41;;;-9.34;100.00
13800;BME280;6971;50.028;9.258;2022-12-18T04:47:46;100663.69;;;-9.27;100.00
13800;BME280;6971;50.028;9.258;2022-12-18T04:52:47;100663.34;;;-8.97;100.00
13800;BME280;6971;50.028;9.258;2022-12-18T04:57:48;100676.44;;;-8.91;100.00
13800;BME280;6971;50.028;9.258;2022-12-18T05:02:49;100687.88;;;-8.63;100.00
13800;BME280;6971;50.028;9.258;2022-12-18T05:07:50;100687.06;;;-8.42;100.00
13800;BME280;6971;50.028;9.258;2022-12-18T05:12:50;100684.91;;;-8.53;100.00
13800;BME280;6971;50.028;9.258;2022-12-18T05:18:14;100687.06;;;-8.62;100.00
13800;BME280;6971;50.028;9.258;2022-12-18T05:23:14;100683.28;;;-8.70;100.00
13800;BME280;6971;50.028;9.258;2022-12-18T05:28:16;100678.72;;;-8.58;100.00
13800;BME280;6971;50.028;9.258;2022-12-18T05:33:18;100688.72;;;-8.43;100.00
13800;BME280;6971;50.028;9.258;2022-12-18T05:38:21;100681.50;;;-8.53;100.00
13800;BME280;6971;50.028;9.258;2022-12-18T05:43:22;100685.41;;;-8.61;100.00
13800;BME280;6971;50.028;9.258;2022-12-18T05:48:24;100678.28;;;-8.28;100.00
13800;BME280;6971;50.028;9.258;2022-12-18T05:53:25;100676.25;;;-8.35;100.00
13800;BME280;6971;50.028;9.258;2022-12-18T05:58:26;100679.03;;;-7.89;100.00
13800;BME280;6971;50.028;9.258;2022-12-18T06:03:26;100692.00;;;-7.84;100.00
13800;BME280;6971;50.028;9.258;2022-12-18T06:08:27;100704.72;;;-7.86;100.00
13800;BME280;6971;50.028;9.258;2022-12-18T06:13:29;100702.00;;;-7.69;100.00
13800;BME280;6971;50.028;9.258;2022-12-18T06:18:30;100696.75;;;-7.73;100.00
13800;BME280;6971;50.028;9.258;2022-12-18T06:23:32;100695.63;;;-7.79;100.00
13800;BME280;6971;50.028;9.258;2022-12-18T06:28:33;100695.47;;;-8.04;100.00
13800;BME280;6971;50.028;9.258;2022-12-18T06:33:34;100708.75;;;-8.32;100.00
13800;BME280;6971;50.028;9.258;2022-12-18T06:38:39;100709.91;;;-8.26;100.00
13800;BME280;6971;50.028;9.258;2022-12-18T06:43:40;100713.38;;;-8.04;100.00
13800;BME280;6971;50.028;9.258;2022-12-18T06:48:41;100708.84;;;-7.90;100.00
13800;BME280;6971;50.028;9.258;2022-12-18T06:53:42;100712.53;;;-7.83;100.00
13800;BME280;6971;50.028;9.258;2022-12-18T06:58:43;100718.47;;;-7.84;100.00
13800;BME280;6971;50.028;9.258;2022-12-18T07:03:44;100719.53;;;-7.79;100.00
13800;BME280;6971;50.028;9.258;2022-12-18T07:08:46;100728.59;;;-7.87;100.00
13800;BME280;6971;50.028;9.258;2022-12-18T07:13:48;100729.47;;;-7.87;100.00
13800;BME280;6971;50.028;9.258;2022-12-18T07:18:49;100748.13;;;-7.89;100.00
13800;BME280;6971;50.028;9.258;2022-12-18T07:23:50;100761.72;;;-7.90;100.00
13800;BME280;6971;50.028;9.258;2022-12-18T07:28:54;100768.25;;;-7.97;100.00
13800;BME280;6971;50.028;9.258;2022-12-18T07:33:56;100769.75;;;-8.02;100.00
13800;BME280;6971;50.028;9.258;2022-12-18T07:38:57;100763.78;;;-8.03;100.00
13800;BME280;6971;50.028;9.258;2022-12-18T07:43:58;100767.06;;;-7.86;100.00
13800;BME280;6971;50.028;9.258;2022-12-18T07:48:59;100763.03;;;-8.00;100.00
13800;BME280;6971;50.028;9.258;2022-12-18T07:54:00;100760.25;;;-8.05;100.00
13800;BME280;6971;50.028;9.258;2022-12-18T07:59:00;100764.25;;;-8.12;100.00
13800;BME280;6971;50.028;9.258;2022-12-18T08:04:01;100754.91;;;-8.11;100.00
13800;BME280;6971;50.028;9.258;2022-12-18T08:09:09;100772.16;;;-8.05;100.00
13800;BME280;6971;50.028;9.258;2022-12-18T08:14:10;100776.44;;;-8.06;100.00
13800;BME280;6971;50.028;9.258;2022-12-18T08:19:11;100773.72;;;-8.09;100.00
13800;BME280;6971;50.028;9.258;2022-12-18T08:24:12;100774.22;;;-8.18;100.00
13800;BME280;6971;50.028;9.258;2022-12-18T08:29:12;100767.28;;;-8.20;100.00
13800;BME280;6971;50.028;9.258;2022-12-18T08:34:27;100767.47;;;-8.16;100.00
13800;BME280;6971;50.028;9.258;2022-12-18T08:39:28;100759.72;;;-8.17;100.00
13800;BME280;6971;50.028;9.258;2022-12-18T08:44:28;100762.34;;;-8.16;100.00
13800;BME280;6971;50.028;9.258;2022-12-18T08:49:38;100759.72;;;-8.17;100.00
13800;BME280;6971;50.028;9.258;2022-12-18T08:54:39;100761.50;;;-8.16;100.00
13800;BME280;6971;50.028;9.258;2022-12-18T08:59:40;100765.13;;;-8.11;100.00
13800;BME280;6971;50.028;9.258;2022-12-18T09:04:41;100769.97;;;-8.17;100.00
13800;BME280;6971;50.028;9.258;2022-12-18T09:09:42;100759.31;;;-8.27;100.00
13800;BME280;6971;50.028;9.258;2022-12-18T09:14:42;100763.63;;;-8.26;100.00
13800;BME280;6971;50.028;9.258;2022-12-18T09:19:43;100762.34;;;-8.16;100.00
13800;BME280;6971;50.028;9.258;2022-12-18T09:24:44;100772.25;;;-8.04;99.74
13800;BME280;6971;50.028;9.258;2022-12-18T09:29:45;100771.38;;;-8.04;97.96
13800;BME280;6971;50.028;9.258;2022-12-18T09:34:46;100790.94;;;-7.65;96.35
13800;BME280;6971;50.028;9.258;2022-12-18T09:39:46;100790.44;;;-7.56;94.07
13800;BME280;6971;50.028;9.258;2022-12-18T09:44:53;100810.06;;;-7.14;91.41
13800;BME280;6971;50.028;9.258;2022-12-18T09:50:04;100825.34;;;-7.17;88.80
13800;BME280;6971;50.028;9.258;2022-12-18T10:00:19;100821.34;;;-6.44;86.95
13800;BME280;6971;50.028;9.258;2022-12-18T10:05:29;100816.13;;;-6.47;86.28
13800;BME280;6971;50.028;9.258;2022-12-18T10:10:52;100805.47;;;-6.79;88.60
13800;BME280;6971;50.028;9.258;2022-12-18T10:26:40;100796.50;;;-6.45;89.97
13800;BME280;6971;50.028;9.258;2022-12-18T10:31:42;100805.88;;;-6.68;90.27
13800;BME280;6971;50.028;9.258;2022-12-18T10:36:43;100805.72;;;-6.27;91.57
13800;BME280;6971;50.028;9.258;2022-12-18T10:41:44;100792.91;;;-6.50;91.21
13800;BME280;6971;50.028;9.258;2022-12-18T10:46:48;100771.19;;;-6.35;92.21
13800;BME280;6971;50.028;9.258;2022-12-18T10:51:49;100765.59;;;-6.25;91.71
13800;BME280;6971;50.028;9.258;2022-12-18T10:57:28;100762.81;;;-6.77;93.25
13800;BME280;6971;50.028;9.258;2022-12-18T11:02:35;100751.69;;;-6.77;95.37
13800;BME280;6971;50.028;9.258;2022-12-18T11:07:48;100756.72;;;-6.80;96.86
13800;BME280;6971;50.028;9.258;2022-12-18T11:12:50;100747.44;;;-6.54;96.20
13800;BME280;6971;50.028;9.258;2022-12-18T11:17:52;100768.53;;;-6.38;96.18
13800;BME280;6971;50.028;9.258;2022-12-18T11:22:59;100753.44;;;-6.53;96.98
13800;BME280;6971;50.028;9.258;2022-12-18T11:28:03;100758.72;;;-6.49;98.53
13800;BME280;6971;50.028;9.258;2022-12-18T11:33:12;100760.00;;;-6.37;97.83
13800;BME280;6971;50.028;9.258;2022-12-18T11:38:37;100759.78;;;-6.19;97.09
13800;BME280;6971;50.028;9.258;2022-12-18T11:43:56;100745.66;;;-6.08;96.64
13800;BME280;6971;50.028;9.258;2022-12-18T11:49:14;100727.06;;;-6.00;97.26
13800;BME280;6971;50.028;9.258;2022-12-18T11:54:17;100715.28;;;-5.94;96.65
13800;BME280;6971;50.028;9.258;2022-12-18T12:20:14;100741.44;;;-6.30;99.38
13800;BME280;6971;50.028;9.258;2022-12-18T12:30:39;100722.06;;;-5.96;100.00
13800;BME280;6971;50.028;9.258;2022-12-18T12:40:56;100737.31;;;-6.00;100.00
13800;BME280;6971;50.028;9.258;2022-12-18T12:51:07;100727.31;;;-5.93;100.00
13800;BME280;6971;50.028;9.258;2022-12-18T12:56:11;100731.94;;;-5.82;100.00
13800;BME280;6971;50.028;9.258;2022-12-18T13:01:17;100720.44;;;-5.94;100.00
13800;BME280;6971;50.028;9.258;2022-12-18T13:06:43;100713.88;;;-5.85;100.00
13800;BME280;6971;50.028;9.258;2022-12-18T13:11:47;100704.34;;;-5.88;100.00
13800;BME280;6971;50.028;9.258;2022-12-18T13:17:38;100692.84;;;-5.73;100.00
13800;BME280;6971;50.028;9.258;2022-12-18T13:22:44;100684.97;;;-5.78;100.00
13800;BME280;6971;50.028;9.258;2022-12-18T13:38:35;100674.78;;;-5.49;100.00
13800;BME280;6971;50.028;9.258;2022-12-18T13:43:46;100683.69;;;-5.38;100.00
13800;BME280;6971;50.028;9.258;2022-12-18T13:49:02;100693.50;;;-5.53;100.00
13800;BME280;6971;50.028;9.258;2022-12-18T13:54:17;100690.03;;;-5.54;100.00
13800;BME280;6971;50.028;9.258;2022-12-18T13:59:22;100683.34;;;-5.48;100.00
13800;BME280;6971;50.028;9.258;2022-12-18T14:04:27;100687.53;;;-5.25;100.00
13800;BME280;6971;50.028;9.258;2022-12-18T14:09:36;100702.34;;;-5.16;100.00
13800;BME280;6971;50.028;9.258;2022-12-18T14:14:41;100706.47;;;-5.21;100.00
13800;BME280;6971;50.028;9.258;2022-12-18T14:19:47;100692.72;;;-5.23;100.00
13800;BME280;6971;50.028;9.258;2022-12-18T14:25:26;100675.06;;;-5.11;100.00
13800;BME280;6971;50.028;9.258;2022-12-18T14:30:39;100684.31;;;-5.17;100.00
13800;BME280;6971;50.028;9.258;2022-12-18T14:41:03;100689.44;;;-5.19;100.00
13800;BME280;6971;50.028;9.258;2022-12-18T14:46:25;100681.59;;;-5.22;100.00
13800;BME280;6971;50.028;9.258;2022-12-18T14:51:29;100694.00;;;-5.08;100.00
13800;BME280;6971;50.028;9.258;2022-12-18T14:56:35;100676.63;;;-5.16;100.00
13800;BME280;6971;50.028;9.258;2022-12-18T15:02:00;100658.66;;;-5.16;100.00
13800;BME280;6971;50.028;9.258;2022-12-18T15:12:33;100650.84;;;-5.19;100.00
13800;BME280;6971;50.028;9.258;2022-12-18T15:17:34;100643.16;;;-5.19;100.00
13800;BME280;6971;50.028;9.258;2022-12-18T15:22:35;100617.28;;;-5.24;100.00
13800;BME280;6971;50.028;9.258;2022-12-18T15:27:37;100618.06;;;-5.26;100.00
13800;BME280;6971;50.028;9.258;2022-12-18T15:32:39;100617.28;;;-5.24;100.00
13800;BME280;6971;50.028;9.258;2022-12-18T15:37:41;100596.69;;;-5.25;100.00
13800;BME280;6971;50.028;9.258;2022-12-18T15:42:42;100595.81;;;-5.26;100.00
13800;BME280;6971;50.028;9.258;2022-12-18T15:48:17;100597.56;;;-5.25;100.00
13800;BME280;6971;50.028;9.258;2022-12-18T15:53:19;100584.78;;;-5.21;100.00
13800;BME280;6971;50.028;9.258;2022-12-18T15:58:20;100590.69;;;-5.26;100.00
13800;BME280;6971;50.028;9.258;2022-12-18T16:03:21;100583.00;;;-5.24;100.00
13800;BME280;6971;50.028;9.258;2022-12-18T16:08:22;100581.16;;;-5.28;100.00
13800;BME280;6971;50.028;9.258;2022-12-18T16:13:24;100592.47;;;-5.23;100.00
13800;BME280;6971;50.028;9.258;2022-12-18T16:18:25;100595.31;;;-5.14;100.00
13800;BME280;6971;50.028;9.258;2022-12-18T16:23:33;100588.50;;;-5.12;100.00
13800;BME280;6971;50.028;9.258;2022-12-18T16:28:34;100584.34;;;-5.06;100.00
13800;BME280;6971;50.028;9.258;2022-12-18T16:33:35;100575.03;;;-5.03;100.00
13800;BME280;6971;50.028;9.258;2022-12-18T16:38:36;100570.78;;;-5.01;100.00
13800;BME280;6971;50.028;9.258;2022-12-18T16:43:36;100567.50;;;-4.96;100.00
13800;BME280;6971;50.028;9.258;2022-12-18T16:48:38;100574.31;;;-4.97;100.00
13800;BME280;6971;50.028;9.258;2022-12-18T16:53:39;100570.00;;;-4.98;100.00
13800;BME280;6971;50.028;9.258;2022-12-18T16:58:39;100549.56;;;-4.93;100.00
13800;BME280;6971;50.028;9.258;2022-12-18T17:03:40;100554.78;;;-4.90;100.00
13800;BME280;6971;50.028;9.258;2022-12-18T17:08:41;100558.28;;;-4.88;100.00
13800;BME280;6971;50.028;9.258;2022-12-18T17:13:42;100554.94;;;-4.86;100.00
13800;BME280;6971;50.028;9.258;2022-12-18T17:18:43;100552.44;;;-4.82;100.00
13800;BME280;6971;50.028;9.258;2022-12-18T17:23:44;100553.28;;;-4.83;100.00
13800;BME280;6971;50.028;9.258;2022-12-18T17:28:45;100550.66;;;-4.85;100.00
13800;BME280;6971;50.028;9.258;2022-12-18T17:33:47;100558.25;;;-4.90;100.00
13800;BME280;6971;50.028;9.258;2022-12-18T17:38:59;100566.13;;;-4.83;100.00
13800;BME280;6971;50.028;9.258;2022-12-18T17:44:02;100560.13;;;-4.84;100.00
13800;BME280;6971;50.028;9.258;2022-12-18T17:49:06;100572.13;;;-4.83;100.00
13800;BME280;6971;50.028;9.258;2022-12-18T17:54:08;100579.09;;;-4.79;100.00
13800;BME280;6971;50.028;9.258;2022-12-18T17:59:08;100580.84;;;-4.78;100.00
13800;BME280;6971;50.028;9.258;2022-12-18T18:04:09;100580.00;;;-4.78;100.00
13800;BME280;6971;50.028;9.258;2022-12-18T18:09:11;100574.75;;;-4.81;100.00
13800;BME280;6971;50.028;9.258;2022-12-18T18:14:16;100570.59;;;-4.76;100.00
13800;BME280;6971;50.028;9.258;2022-12-18T18:19:20;100567.13;;;-4.78;100.00
13800;BME280;6971;50.028;9.258;2022-12-18T18:24:22;100546.47;;;-4.81;100.00
13800;BME280;6971;50.028;9.258;2022-12-18T18:29:24;100539.63;;;-4.81;100.00
13800;BME280;6971;50.028;9.258;2022-12-18T18:34:27;100536.97;;;-4.84;100.00
13800;BME280;6971;50.028;9.258;2022-12-18T18:39:29;100538.59;;;-4.86;100.00
13800;BME280;6971;50.028;9.258;2022-12-18T18:44:30;100529.34;;;-4.81;100.00
13800;BME280;6971;50.028;9.258;2022-12-18T18:49:34;100536.19;;;-4.81;100.00
13800;BME280;6971;50.028;9.258;2022-12-18T18:54:35;100540.44;;;-4.82;100.00
13800;BME280;6971;50.028;9.258;2022-12-18T18:59:36;100525.03;;;-4.80;100.00
13800;BME280;6971;50.028;9.258;2022-12-18T19:04:36;100535.19;;;-4.87;100.00
13800;BME280;6971;50.028;9.258;2022-12-18T19:09:38;100543.06;;;-4.80;100.00
13800;BME280;6971;50.028;9.258;2022-12-18T19:14:39;100536.03;;;-4.86;100.00
13800;BME280;6971;50.028;9.258;2022-12-18T19:19:41;100538.59;;;-4.86;100.00
13800;BME280;6971;50.028;9.258;2022-12-18T19:24:42;100542.00;;;-4.87;100.00
13800;BME280;6971;50.028;9.258;2022-12-18T19:29:43;100543.69;;;-4.89;100.00
13800;BME280;6971;50.028;9.258;2022-12-18T19:34:44;100524.81;;;-4.90;100.00
13800;BME280;6971;50.028;9.258;2022-12-18T19:39:45;100522.19;;;-4.91;100.00
13800;BME280;6971;50.028;9.258;2022-12-18T19:44:47;100504.88;;;-4.97;100.00
13800;BME280;6971;50.028;9.258;2022-12-18T19:49:47;100494.59;;;-4.99;100.00
13800;BME280;6971;50.028;9.258;2022-12-18T19:54:48;100476.59;;;-4.97;100.00
13800;BME280;6971;50.028;9.258;2022-12-18T19:59:49;100482.53;;;-5.01;100.00
13800;BME280;6971;50.028;9.258;2022-12-18T20:04:53;100475.66;;;-5.01;100.00
13800;BME280;6971;50.028;9.258;2022-12-18T20:09:53;100467.91;;;-5.02;100.00
13800;BME280;6971;50.028;9.258;2022-12-18T20:14:54;100455.91;;;-5.02;100.00
13800;BME280;6971;50.028;9.258;2022-12-18T20:19:56;100471.41;;;-5.00;100.00
13800;BME280;6971;50.028;9.258;2022-12-18T20:24:57;100459.31;;;-5.03;100.00
13800;BME280;6971;50.028;9.258;2022-12-18T20:30:08;100454.06;;;-5.07;100.00
13800;BME280;6971;50.028;9.258;2022-12-18T20:35:08;100468.72;;;-5.03;100.00
13800;BME280;6971;50.028;9.258;2022-12-18T20:40:10;100477.34;;;-5.03;100.00
13800;BME280;6971;50.028;9.258;2022-12-18T20:45:11;100481.59;;;-5.03;100.00
13800;BME280;6971;50.028;9.258;2022-12-18T20:50:12;100463.50;;;-5.06;100.00
13800;BME280;6971;50.028;9.258;2022-12-18T20:55:13;100454.16;;;-5.04;100.00
13800;BME280;6971;50.028;9.258;2022-12-18T21:00:15;100447.25;;;-5.05;100.00
13800;BME280;6971;50.028;9.258;2022-12-18T21:05:19;100435.22;;;-5.06;100.00
13800;BME280;6971;50.028;9.258;2022-12-18T21:10:20;100452.38;;;-5.07;100.00
13800;BME280;6971;50.028;9.258;2022-12-18T21:15:21;100450.50;;;-5.13;100.00
13800;BME280;6971;50.028;9.258;2022-12-18T21:20:22;100441.94;;;-5.12;100.00
13800;BME280;6971;50.028;9.258;2022-12-18T21:25:23;100443.78;;;-5.07;100.00
13800;BME280;6971;50.028;9.258;2022-12-18T21:30:24;100456.72;;;-5.04;100.00
13800;BME280;6971;50.028;9.258;2022-12-18T21:35:25;100460.22;;;-5.01;100.00
13800;BME280;6971;50.028;9.258;2022-12-18T21:40:26;100450.88;;;-4.97;100.00
13800;BME280;6971;50.028;9.258;2022-12-18T21:45:27;100456.06;;;-4.95;100.00
13800;BME280;6971;50.028;9.258;2022-12-18T21:50:28;100462.13;;;-4.93;100.00
13800;BME280;6971;50.028;9.258;2022-12-18T21:55:29;100464.75;;;-4.92;100.00
13800;BME280;6971;50.028;9.258;2022-12-18T22:00:30;100465.59;;;-4.91;100.00
13800;BME280;6971;50.028;9.258;2022-12-18T22:05:30;100485.38;;;-4.89;100.00
13800;BME280;6971;50.028;9.258;2022-12-18T22:10:31;100485.25;;;-4.95;100.00
13800;BME280;6971;50.028;9.258;2022-12-18T22:15:33;100479.34;;;-4.91;100.00
13800;BME280;6971;50.028;9.258;2022-12-18T22:20:34;100459.75;;;-4.86;100.00
13800;BME280;6971;50.028;9.258;2022-12-18T22:25:35;100461.44;;;-4.88;100.00
13800;BME280;6971;50.028;9.258;2022-12-18T22:30:37;100451.19;;;-4.85;100.00
13800;BME280;6971;50.028;9.258;2022-12-18T22:35:38;100445.00;;;-4.93;100.00
13800;BME280;6971;50.028;9.258;2022-12-18T22:40:39;100447.56;;;-4.93;100.00
13800;BME280;6971;50.028;9.258;2022-12-18T22:45:40;100437.38;;;-4.90;100.00
13800;BME280;6971;50.028;9.258;2022-12-18T22:50:42;100426.28;;;-4.87;100.00
13800;BME280;6971;50.028;9.258;2022-12-18T22:55:42;100446.06;;;-4.85;100.00
13800;BME280;6971;50.028;9.258;2022-12-18T23:00:43;100446.94;;;-4.84;100.00
13800;BME280;6971;50.028;9.258;2022-12-18T23:05:44;100447.09;;;-4.78;100.00
13800;BME280;6971;50.028;9.258;2022-12-18T23:10:45;100435.84;;;-4.81;100.00
13800;BME280;6971;50.028;9.258;2022-12-18T23:15:45;100427.31;;;-4.80;100.00
13800;BME280;6971;50.028;9.258;2022-12-18T23:20:47;100439.31;;;-4.79;100.00
13800;BME280;6971;50.028;9.258;2022-12-18T23:25:49;100439.44;;;-4.75;100.00
13800;BME280;6971;50.028;9.258;2022-12-18T23:30:49;100424.84;;;-4.76;100.00
13800;BME280;6971;50.028;9.258;2022-12-18T23:35:50;100416.28;;;-4.75;100.00
13800;BME280;6971;50.028;9.258;2022-12-18T23:40:51;100420.66;;;-4.72;100.00
13800;BME280;6971;50.028;9.258;2022-12-18T23:45:52;100410.53;;;-4.66;100.00
13800;BME280;6971;50.028;9.258;2022-12-18T23:50:53;100420.81;;;-4.66;100.00
13800;BME280;6971;50.028;9.258;2022-12-18T23:55:54;100405.44;;;-4.63;100.00
